sensor_id;sensor_type;location;lat;lon;timestamp;temperature;humidity
20654;DHT22;21083;50.898;4.902;2024-03-02T00:00:03;7.90;99.90
20654;DHT22;21083;50.898;4.902;2024-03-02T00:02:40;7.90;99.90
20654;DHT22;21083;50.898;4.902;2024-03-02T00:05:07;7.90;99.90
20654;DHT22;21083;50.898;4.902;2024-03-02T00:07:37;7.90;99.90
20654;DHT22;21083;50.898;4.902;2024-03-02T00:10:09;8.00;99.90
20654;DHT22;21083;50.898;4.902;2024-03-02T00:12:37;8.00;99.90
20654;DHT22;21083;50.898;4.902;2024-03-02T00:15:19;8.10;99.90
20654;DHT22;21083;50.898;4.902;2024-03-02T00:17:52;8.20;99.90
20654;DHT22;21083;50.898;4.902;2024-03-02T00:20:22;8.00;99.90
20654;DHT22;21083;50.898;4.902;2024-03-02T00:22:50;8.00;99.90
20654;DHT22;21083;50.898;4.902;2024-03-02T00:25:19;8.10;99.90
20654;DHT22;21083;50.898;4.902;2024-03-02T00:27:48;8.10;99.90
20654;DHT22;21083;50.898;4.902;2024-03-02T00:33:27;8.10;99.90
20654;DHT22;21083;50.898;4.902;2024-03-02T00:35:57;8.10;99.90
20654;DHT22;21083;50.898;4.902;2024-03-02T00:38:25;8.20;99.90
20654;DHT22;21083;50.898;4.902;2024-03-02T00:40:54;8.10;99.90
20654;DHT22;21083;50.898;4.902;2024-03-02T00:43:42;8.00;99.90
20654;DHT22;21083;50.898;4.902;2024-03-02T00:46:11;8.10;99.90
20654;DHT22;21083;50.898;4.902;2024-03-02T00:48:51;8.10;99.90
20654;DHT22;21083;50.898;4.902;2024-03-02T00:51:18;8.10;99.90
20654;DHT22;21083;50.898;4.902;2024-03-02T00:53:46;8.30;99.90
20654;DHT22;21083;50.898;4.902;2024-03-02T00:56:14;8.20;99.90
20654;DHT22;21083;50.898;4.902;2024-03-02T00:58:42;8.20;99.90
20654;DHT22;21083;50.898;4.902;2024-03-02T01:01:09;8.30;99.90
20654;DHT22;21083;50.898;4.902;2024-03-02T01:03:37;8.20;99.90
20654;DHT22;21083;50.898;4.902;2024-03-02T01:06:05;8.10;99.90
20654;DHT22;21083;50.898;4.902;2024-03-02T01:08:33;8.20;99.90
20654;DHT22;21083;50.898;4.902;2024-03-02T01:11:01;8.10;99.90
20654;DHT22;21083;50.898;4.902;2024-03-02T01:13:29;8.10;99.90
20654;DHT22;21083;50.898;4.902;2024-03-02T01:15:57;8.20;99.90
20654;DHT22;21083;50.898;4.902;2024-03-02T01:18:25;8.20;99.90
20654;DHT22;21083;50.898;4.902;2024-03-02T01:20:52;8.20;99.90
20654;DHT22;21083;50.898;4.902;2024-03-02T01:23:21;8.10;99.90
20654;DHT22;21083;50.898;4.902;2024-03-02T01:25:49;8.20;99.90
20654;DHT22;21083;50.898;4.902;2024-03-02T01:28:16;8.10;99.90
20654;DHT22;21083;50.898;4.902;2024-03-02T01:30:46;8.10;99.90
20654;DHT22;21083;50.898;4.902;2024-03-02T01:33:13;8.20;99.90
20654;DHT22;21083;50.898;4.902;2024-03-02T01:35:40;8.20;99.90
20654;DHT22;21083;50.898;4.902;2024-03-02T01:38:08;8.10;99.90
20654;DHT22;21083;50.898;4.902;2024-03-02T01:40:35;8.00;99.90
20654;DHT22;21083;50.898;4.902;2024-03-02T01:43:04;8.10;99.90
20654;DHT22;21083;50.898;4.902;2024-03-02T01:45:32;8.10;99.90
20654;DHT22;21083;50.898;4.902;2024-03-02T01:48:01;8.10;99.90
20654;DHT22;21083;50.898;4.902;2024-03-02T01:50:29;8.00;99.90
20654;DHT22;21083;50.898;4.902;2024-03-02T01:52:57;8.10;99.90
20654;DHT22;21083;50.898;4.902;2024-03-02T01:55:24;8.00;99.90
20654;DHT22;21083;50.898;4.902;2024-03-02T01:57:52;8.10;99.90
20654;DHT22;21083;50.898;4.902;2024-03-02T02:00:20;8.00;99.90
20654;DHT22;21083;50.898;4.902;2024-03-02T02:02:48;7.90;99.90
20654;DHT22;21083;50.898;4.902;2024-03-02T02:05:17;7.90;99.90
20654;DHT22;21083;50.898;4.902;2024-03-02T02:07:44;7.90;99.90
20654;DHT22;21083;50.898;4.902;2024-03-02T02:10:13;8.00;99.90
20654;DHT22;21083;50.898;4.902;2024-03-02T02:12:40;8.00;99.90
20654;DHT22;21083;50.898;4.902;2024-03-02T02:15:26;8.00;99.90
20654;DHT22;21083;50.898;4.902;2024-03-02T02:17:53;8.00;99.90
20654;DHT22;21083;50.898;4.902;2024-03-02T02:20:22;7.80;99.90
20654;DHT22;21083;50.898;4.902;2024-03-02T02:22:56;7.80;99.90
20654;DHT22;21083;50.898;4.902;2024-03-02T02:25:23;7.90;99.90
20654;DHT22;21083;50.898;4.902;2024-03-02T02:27:51;7.90;99.90
20654;DHT22;21083;50.898;4.902;2024-03-02T02:30:19;7.90;99.90
20654;DHT22;21083;50.898;4.902;2024-03-02T02:32:47;7.90;99.90
20654;DHT22;21083;50.898;4.902;2024-03-02T02:35:14;7.80;99.90
20654;DHT22;21083;50.898;4.902;2024-03-02T02:37:42;7.70;99.90
20654;DHT22;21083;50.898;4.902;2024-03-02T02:40:12;7.60;99.90
20654;DHT22;21083;50.898;4.902;2024-03-02T02:42:40;7.80;99.90
20654;DHT22;21083;50.898;4.902;2024-03-02T02:45:07;7.90;99.90
20654;DHT22;21083;50.898;4.902;2024-03-02T02:47:35;7.80;99.90
20654;DHT22;21083;50.898;4.902;2024-03-02T02:50:03;8.00;99.90
20654;DHT22;21083;50.898;4.902;2024-03-02T02:52:33;7.80;99.90
20654;DHT22;21083;50.898;4.902;2024-03-02T02:55:03;7.80;99.90
20654;DHT22;21083;50.898;4.902;2024-03-02T02:57:32;7.70;99.90
20654;DHT22;21083;50.898;4.902;2024-03-02T03:00:02;7.70;99.90
20654;DHT22;21083;50.898;4.902;2024-03-02T03:02:37;7.90;99.90
20654;DHT22;21083;50.898;4.902;2024-03-02T03:05:05;7.80;99.90
20654;DHT22;21083;50.898;4.902;2024-03-02T03:07:33;7.70;99.90
20654;DHT22;21083;50.898;4.902;2024-03-02T03:10:01;7.70;99.90
20654;DHT22;21083;50.898;4.902;2024-03-02T03:12:29;7.70;99.90
20654;DHT22;21083;50.898;4.902;2024-03-02T03:14:58;7.60;99.90
20654;DHT22;21083;50.898;4.902;2024-03-02T03:17:26;7.60;99.90
20654;DHT22;21083;50.898;4.902;2024-03-02T03:19:53;7.70;99.90
20654;DHT22;21083;50.898;4.902;2024-03-02T03:22:20;7.70;99.90
20654;DHT22;21083;50.898;4.902;2024-03-02T03:24:48;7.80;99.90
20654;DHT22;21083;50.898;4.902;2024-03-02T03:27:15;7.90;99.90
20654;DHT22;21083;50.898;4.902;2024-03-02T03:29:43;7.90;99.90
20654;DHT22;21083;50.898;4.902;2024-03-02T03:32:11;7.90;99.90
20654;DHT22;21083;50.898;4.902;2024-03-02T03:34:39;7.80;99.90
20654;DHT22;21083;50.898;4.902;2024-03-02T03:37:06;7.70;99.90
20654;DHT22;21083;50.898;4.902;2024-03-02T03:39:34;7.50;99.90
20654;DHT22;21083;50.898;4.902;2024-03-02T03:42:02;7.60;99.90
20654;DHT22;21083;50.898;4.902;2024-03-02T03:44:30;7.70;99.90
20654;DHT22;21083;50.898;4.902;2024-03-02T03:46:57;7.60;99.90
20654;DHT22;21083;50.898;4.902;2024-03-02T03:49:25;7.60;99.90
20654;DHT22;21083;50.898;4.902;2024-03-02T03:51:53;7.50;99.90
20654;DHT22;21083;50.898;4.902;2024-03-02T03:54:20;7.50;99.90
20654;DHT22;21083;50.898;4.902;2024-03-02T03:56:47;7.50;99.90
20654;DHT22;21083;50.898;4.902;2024-03-02T03:59:14;7.50;99.90
20654;DHT22;21083;50.898;4.902;2024-03-02T04:01:42;7.40;99.90
20654;DHT22;21083;50.898;4.902;2024-03-02T04:04:09;7.40;99.90
20654;DHT22;21083;50.898;4.902;2024-03-02T04:06:38;7.40;99.90
20654;DHT22;21083;50.898;4.902;2024-03-02T04:09:05;7.40;99.90
20654;DHT22;21083;50.898;4.902;2024-03-02T04:11:33;7.50;99.90
20654;DHT22;21083;50.898;4.902;2024-03-02T04:14:00;7.40;99.90
20654;DHT22;21083;50.898;4.902;2024-03-02T04:16:27;7.40;99.90
20654;DHT22;21083;50.898;4.902;2024-03-02T04:18:55;7.40;99.90
20654;DHT22;21083;50.898;4.902;2024-03-02T04:21:22;7.40;99.90
20654;DHT22;21083;50.898;4.902;2024-03-02T04:23:51;7.40;99.90
20654;DHT22;21083;50.898;4.902;2024-03-02T04:26:23;7.30;99.90
20654;DHT22;21083;50.898;4.902;2024-03-02T04:28:51;7.40;99.90
20654;DHT22;21083;50.898;4.902;2024-03-02T04:31:18;7.40;99.90
20654;DHT22;21083;50.898;4.902;2024-03-02T04:33:46;7.50;99.90
20654;DHT22;21083;50.898;4.902;2024-03-02T04:36:13;7.50;99.90
20654;DHT22;21083;50.898;4.902;2024-03-02T04:38:40;7.50;99.90
20654;DHT22;21083;50.898;4.902;2024-03-02T04:41:09;7.50;99.90
20654;DHT22;21083;50.898;4.902;2024-03-02T04:43:36;7.40;99.90
20654;DHT22;21083;50.898;4.902;2024-03-02T04:46:04;7.40;99.90
20654;DHT22;21083;50.898;4.902;2024-03-02T04:48:32;7.40;99.90
20654;DHT22;21083;50.898;4.902;2024-03-02T04:51:00;7.40;99.90
20654;DHT22;21083;50.898;4.902;2024-03-02T04:53:27;7.40;99.90
20654;DHT22;21083;50.898;4.902;2024-03-02T04:55:54;7.30;99.90
20654;DHT22;21083;50.898;4.902;2024-03-02T04:58:54;7.30;99.90
20654;DHT22;21083;50.898;4.902;2024-03-02T05:01:22;7.30;99.90
20654;DHT22;21083;50.898;4.902;2024-03-02T05:03:49;7.30;99.90
20654;DHT22;21083;50.898;4.902;2024-03-02T05:06:16;7.30;99.90
20654;DHT22;21083;50.898;4.902;2024-03-02T05:08:43;7.30;99.90
20654;DHT22;21083;50.898;4.902;2024-03-02T05:11:11;7.30;99.90
20654;DHT22;21083;50.898;4.902;2024-03-02T05:14:24;7.30;99.90
20654;DHT22;21083;50.898;4.902;2024-03-02T05:16:51;7.30;99.90
20654;DHT22;21083;50.898;4.902;2024-03-02T05:19:18;7.30;99.90
20654;DHT22;21083;50.898;4.902;2024-03-02T05:21:46;7.30;99.90
20654;DHT22;21083;50.898;4.902;2024-03-02T05:24:14;7.20;99.90
20654;DHT22;21083;50.898;4.902;2024-03-02T05:26:41;7.20;99.90
20654;DHT22;21083;50.898;4.902;2024-03-02T05:29:09;7.10;99.90
20654;DHT22;21083;50.898;4.902;2024-03-02T05:31:38;7.10;99.90
20654;DHT22;21083;50.898;4.902;2024-03-02T05:34:05;7.10;99.90
20654;DHT22;21083;50.898;4.902;2024-03-02T05:36:32;7.00;99.90
20654;DHT22;21083;50.898;4.902;2024-03-02T05:38:59;7.00;99.90
20654;DHT22;21083;50.898;4.902;2024-03-02T05:41:27;7.00;99.90
20654;DHT22;21083;50.898;4.902;2024-03-02T05:43:54;7.00;99.90
20654;DHT22;21083;50.898;4.902;2024-03-02T05:46:21;7.10;99.90
20654;DHT22;21083;50.898;4.902;2024-03-02T05:48:50;7.00;99.90
20654;DHT22;21083;50.898;4.902;2024-03-02T05:51:17;6.90;99.90
20654;DHT22;21083;50.898;4.902;2024-03-02T05:53:45;6.90;99.90
20654;DHT22;21083;50.898;4.902;2024-03-02T05:56:12;6.80;99.90
20654;DHT22;21083;50.898;4.902;2024-03-02T05:58:41;6.80;99.90
20654;DHT22;21083;50.898;4.902;2024-03-02T06:01:23;6.80;99.90
20654;DHT22;21083;50.898;4.902;2024-03-02T06:03:55;6.80;99.90
20654;DHT22;21083;50.898;4.902;2024-03-02T06:06:23;6.80;99.90
20654;DHT22;21083;50.898;4.902;2024-03-02T06:08:50;6.70;99.90
20654;DHT22;21083;50.898;4.902;2024-03-02T06:11:18;6.80;99.90
20654;DHT22;21083;50.898;4.902;2024-03-02T06:13:46;6.80;99.90
20654;DHT22;21083;50.898;4.902;2024-03-02T06:16:13;6.80;99.90
20654;DHT22;21083;50.898;4.902;2024-03-02T06:18:40;6.80;99.90
20654;DHT22;21083;50.898;4.902;2024-03-02T06:21:09;6.70;99.90
20654;DHT22;21083;50.898;4.902;2024-03-02T06:23:36;6.80;99.90
20654;DHT22;21083;50.898;4.902;2024-03-02T06:26:03;6.80;99.90
20654;DHT22;21083;50.898;4.902;2024-03-02T06:28:31;6.60;99.90
20654;DHT22;21083;50.898;4.902;2024-03-02T06:30:58;6.70;99.90
20654;DHT22;21083;50.898;4.902;2024-03-02T06:33:25;6.60;99.90
20654;DHT22;21083;50.898;4.902;2024-03-02T06:35:52;6.60;99.90
20654;DHT22;21083;50.898;4.902;2024-03-02T06:38:21;6.50;99.90
20654;DHT22;21083;50.898;4.902;2024-03-02T06:40:48;6.50;99.90
20654;DHT22;21083;50.898;4.902;2024-03-02T06:43:16;6.50;99.90
20654;DHT22;21083;50.898;4.902;2024-03-02T06:45:43;6.40;99.90
20654;DHT22;21083;50.898;4.902;2024-03-02T06:48:10;6.40;99.90
20654;DHT22;21083;50.898;4.902;2024-03-02T06:50:37;6.50;99.90
20654;DHT22;21083;50.898;4.902;2024-03-02T06:53:05;6.40;99.90
20654;DHT22;21083;50.898;4.902;2024-03-02T06:55:33;6.50;99.90
20654;DHT22;21083;50.898;4.902;2024-03-02T06:58:01;6.60;99.90
20654;DHT22;21083;50.898;4.902;2024-03-02T07:00:28;6.60;99.90
20654;DHT22;21083;50.898;4.902;2024-03-02T07:02:55;6.50;99.90
20654;DHT22;21083;50.898;4.902;2024-03-02T07:05:21;6.50;99.90
20654;DHT22;21083;50.898;4.902;2024-03-02T07:07:49;6.50;99.90
20654;DHT22;21083;50.898;4.902;2024-03-02T07:10:16;6.50;99.90
20654;DHT22;21083;50.898;4.902;2024-03-02T07:12:45;6.50;99.90
20654;DHT22;21083;50.898;4.902;2024-03-02T07:15:12;6.60;99.90
20654;DHT22;21083;50.898;4.902;2024-03-02T07:18:15;6.60;99.90
20654;DHT22;21083;50.898;4.902;2024-03-02T07:20:43;6.50;99.90
20654;DHT22;21083;50.898;4.902;2024-03-02T07:23:10;6.40;99.90
20654;DHT22;21083;50.898;4.902;2024-03-02T07:25:37;6.50;99.90
20654;DHT22;21083;50.898;4.902;2024-03-02T07:28:06;6.40;99.90
20654;DHT22;21083;50.898;4.902;2024-03-02T07:30:34;6.40;99.90
20654;DHT22;21083;50.898;4.902;2024-03-02T07:33:02;6.50;99.90
20654;DHT22;21083;50.898;4.902;2024-03-02T07:35:30;6.50;99.90
20654;DHT22;21083;50.898;4.902;2024-03-02T07:37:57;6.50;99.90
20654;DHT22;21083;50.898;4.902;2024-03-02T07:40:25;6.60;99.90
20654;DHT22;21083;50.898;4.902;2024-03-02T07:42:52;6.70;99.90
20654;DHT22;21083;50.898;4.902;2024-03-02T07:45:21;6.70;99.90
20654;DHT22;21083;50.898;4.902;2024-03-02T07:47:48;6.70;99.90
20654;DHT22;21083;50.898;4.902;2024-03-02T07:50:15;6.80;99.90
20654;DHT22;21083;50.898;4.902;2024-03-02T07:52:43;6.80;99.90
20654;DHT22;21083;50.898;4.902;2024-03-02T07:55:10;6.90;99.90
20654;DHT22;21083;50.898;4.902;2024-03-02T07:57:38;7.00;99.90
20654;DHT22;21083;50.898;4.902;2024-03-02T08:00:07;7.10;99.90
20654;DHT22;21083;50.898;4.902;2024-03-02T08:02:36;7.00;99.90
20654;DHT22;21083;50.898;4.902;2024-03-02T08:05:04;7.10;99.90
20654;DHT22;21083;50.898;4.902;2024-03-02T08:07:31;7.10;99.90
20654;DHT22;21083;50.898;4.902;2024-03-02T08:09:58;7.20;99.90
20654;DHT22;21083;50.898;4.902;2024-03-02T08:12:25;7.30;99.90
20654;DHT22;21083;50.898;4.902;2024-03-02T08:14:53;7.40;99.90
20654;DHT22;21083;50.898;4.902;2024-03-02T08:17:20;7.50;99.90
20654;DHT22;21083;50.898;4.902;2024-03-02T08:19:49;7.60;99.90
20654;DHT22;21083;50.898;4.902;2024-03-02T08:22:16;7.70;99.90
20654;DHT22;21083;50.898;4.902;2024-03-02T08:24:45;7.80;99.90
20654;DHT22;21083;50.898;4.902;2024-03-02T08:27:13;7.90;99.90
20654;DHT22;21083;50.898;4.902;2024-03-02T08:29:40;8.10;99.90
20654;DHT22;21083;50.898;4.902;2024-03-02T08:32:08;8.30;99.90
20654;DHT22;21083;50.898;4.902;2024-03-02T08:34:35;8.30;99.90
20654;DHT22;21083;50.898;4.902;2024-03-02T08:37:04;8.50;99.90
20654;DHT22;21083;50.898;4.902;2024-03-02T08:39:32;8.50;99.90
20654;DHT22;21083;50.898;4.902;2024-03-02T08:41:59;8.50;99.90
20654;DHT22;21083;50.898;4.902;2024-03-02T08:44:26;8.50;99.90
20654;DHT22;21083;50.898;4.902;2024-03-02T08:46:54;8.70;99.90
20654;DHT22;21083;50.898;4.902;2024-03-02T08:49:21;8.80;99.90
20654;DHT22;21083;50.898;4.902;2024-03-02T08:51:49;8.90;99.90
20654;DHT22;21083;50.898;4.902;2024-03-02T08:54:21;8.80;99.90
20654;DHT22;21083;50.898;4.902;2024-03-02T08:56:49;8.90;99.90
20654;DHT22;21083;50.898;4.902;2024-03-02T08:59:17;8.90;99.90
20654;DHT22;21083;50.898;4.902;2024-03-02T09:01:44;9.10;99.90
20654;DHT22;21083;50.898;4.902;2024-03-02T09:04:11;9.10;99.90
20654;DHT22;21083;50.898;4.902;2024-03-02T09:06:38;9.40;99.90
20654;DHT22;21083;50.898;4.902;2024-03-02T09:09:06;9.40;99.90
20654;DHT22;21083;50.898;4.902;2024-03-02T09:11:35;9.50;99.90
20654;DHT22;21083;50.898;4.902;2024-03-02T09:14:03;9.50;99.90
20654;DHT22;21083;50.898;4.902;2024-03-02T09:16:31;9.60;99.90
20654;DHT22;21083;50.898;4.902;2024-03-02T09:18:58;9.60;99.90
20654;DHT22;21083;50.898;4.902;2024-03-02T09:21:26;9.60;99.90
20654;DHT22;21083;50.898;4.902;2024-03-02T09:23:55;9.60;99.90
20654;DHT22;21083;50.898;4.902;2024-03-02T09:26:23;9.70;99.90
20654;DHT22;21083;50.898;4.902;2024-03-02T09:28:52;9.90;99.90
20654;DHT22;21083;50.898;4.902;2024-03-02T09:31:19;10.00;99.90
20654;DHT22;21083;50.898;4.902;2024-03-02T09:33:46;10.10;99.90
20654;DHT22;21083;50.898;4.902;2024-03-02T09:36:17;10.10;99.90
20654;DHT22;21083;50.898;4.902;2024-03-02T09:38:45;10.10;99.90
20654;DHT22;21083;50.898;4.902;2024-03-02T09:41:12;10.10;99.90
20654;DHT22;21083;50.898;4.902;2024-03-02T09:43:40;10.30;99.90
20654;DHT22;21083;50.898;4.902;2024-03-02T09:46:10;10.30;99.90
20654;DHT22;21083;50.898;4.902;2024-03-02T09:48:37;10.30;99.90
20654;DHT22;21083;50.898;4.902;2024-03-02T09:51:05;10.20;99.90
20654;DHT22;21083;50.898;4.902;2024-03-02T09:53:34;10.30;99.90
20654;DHT22;21083;50.898;4.902;2024-03-02T09:56:01;10.40;99.90
20654;DHT22;21083;50.898;4.902;2024-03-02T09:58:28;10.50;99.90
20654;DHT22;21083;50.898;4.902;2024-03-02T10:00:57;10.50;99.90
20654;DHT22;21083;50.898;4.902;2024-03-02T10:03:26;10.50;99.90
20654;DHT22;21083;50.898;4.902;2024-03-02T10:06:18;10.60;99.90
20654;DHT22;21083;50.898;4.902;2024-03-02T10:08:46;10.50;99.90
20654;DHT22;21083;50.898;4.902;2024-03-02T10:11:26;10.50;99.90
20654;DHT22;21083;50.898;4.902;2024-03-02T10:14:09;10.70;99.90
20654;DHT22;21083;50.898;4.902;2024-03-02T10:16:37;10.80;99.90
20654;DHT22;21083;50.898;4.902;2024-03-02T10:19:20;10.90;99.90
20654;DHT22;21083;50.898;4.902;2024-03-02T10:21:47;11.30;99.90
20654;DHT22;21083;50.898;4.902;2024-03-02T10:24:15;11.50;99.90
20654;DHT22;21083;50.898;4.902;2024-03-02T10:26:42;11.80;99.90
20654;DHT22;21083;50.898;4.902;2024-03-02T10:29:10;12.00;99.90
20654;DHT22;21083;50.898;4.902;2024-03-02T10:31:38;12.10;99.90
20654;DHT22;21083;50.898;4.902;2024-03-02T10:34:06;12.30;99.90
20654;DHT22;21083;50.898;4.902;2024-03-02T10:36:34;12.40;99.90
20654;DHT22;21083;50.898;4.902;2024-03-02T10:39:03;12.50;99.90
20654;DHT22;21083;50.898;4.902;2024-03-02T10:41:32;12.80;99.90
20654;DHT22;21083;50.898;4.902;2024-03-02T10:44:03;13.00;99.90
20654;DHT22;21083;50.898;4.902;2024-03-02T10:46:31;13.10;99.90
20654;DHT22;21083;50.898;4.902;2024-03-02T10:48:59;13.30;99.90
20654;DHT22;21083;50.898;4.902;2024-03-02T10:51:28;13.50;99.90
20654;DHT22;21083;50.898;4.902;2024-03-02T10:53:59;13.60;99.90
20654;DHT22;21083;50.898;4.902;2024-03-02T10:56:29;13.70;99.90
20654;DHT22;21083;50.898;4.902;2024-03-02T10:59:02;13.50;99.90
20654;DHT22;21083;50.898;4.902;2024-03-02T11:01:32;13.40;99.90
20654;DHT22;21083;50.898;4.902;2024-03-02T11:04:02;13.50;99.90
20654;DHT22;21083;50.898;4.902;2024-03-02T11:06:29;13.60;99.90
20654;DHT22;21083;50.898;4.902;2024-03-02T11:09:05;13.60;99.90
20654;DHT22;21083;50.898;4.902;2024-03-02T11:11:37;13.80;99.90
20654;DHT22;21083;50.898;4.902;2024-03-02T11:14:09;14.10;99.90
20654;DHT22;21083;50.898;4.902;2024-03-02T11:16:38;14.10;99.90
20654;DHT22;21083;50.898;4.902;2024-03-02T11:19:10;14.40;99.90
20654;DHT22;21083;50.898;4.902;2024-03-02T11:21:38;14.50;99.90
20654;DHT22;21083;50.898;4.902;2024-03-02T11:24:34;14.40;99.90
20654;DHT22;21083;50.898;4.902;2024-03-02T11:27:02;14.30;99.90
20654;DHT22;21083;50.898;4.902;2024-03-02T11:29:50;14.30;99.90
20654;DHT22;21083;50.898;4.902;2024-03-02T11:32:21;14.40;99.90
20654;DHT22;21083;50.898;4.902;2024-03-02T11:34:50;14.20;99.90
20654;DHT22;21083;50.898;4.902;2024-03-02T11:37:18;14.20;99.90
20654;DHT22;21083;50.898;4.902;2024-03-02T11:39:49;14.30;99.90
20654;DHT22;21083;50.898;4.902;2024-03-02T11:42:17;14.40;99.90
20654;DHT22;21083;50.898;4.902;2024-03-02T11:44:46;14.20;99.90
20654;DHT22;21083;50.898;4.902;2024-03-02T11:47:15;14.50;99.90
20654;DHT22;21083;50.898;4.902;2024-03-02T11:49:43;14.60;99.90
20654;DHT22;21083;50.898;4.902;2024-03-02T11:52:13;14.70;99.90
20654;DHT22;21083;50.898;4.902;2024-03-02T11:54:41;14.90;99.90
20654;DHT22;21083;50.898;4.902;2024-03-02T11:57:14;14.90;99.90
20654;DHT22;21083;50.898;4.902;2024-03-02T11:59:42;15.10;99.90
20654;DHT22;21083;50.898;4.902;2024-03-02T12:02:15;15.40;99.90
20654;DHT22;21083;50.898;4.902;2024-03-02T12:04:44;15.60;99.90
20654;DHT22;21083;50.898;4.902;2024-03-02T12:07:12;15.80;99.90
20654;DHT22;21083;50.898;4.902;2024-03-02T12:09:39;15.80;99.90
20654;DHT22;21083;50.898;4.902;2024-03-02T12:12:08;15.60;99.90
20654;DHT22;21083;50.898;4.902;2024-03-02T12:14:38;15.60;99.90
20654;DHT22;21083;50.898;4.902;2024-03-02T12:17:05;15.60;99.90
20654;DHT22;21083;50.898;4.902;2024-03-02T12:19:33;15.60;99.90
20654;DHT22;21083;50.898;4.902;2024-03-02T12:22:00;15.30;99.90
20654;DHT22;21083;50.898;4.902;2024-03-02T12:24:29;15.20;99.90
20654;DHT22;21083;50.898;4.902;2024-03-02T12:26:57;15.40;99.90
20654;DHT22;21083;50.898;4.902;2024-03-02T12:29:24;15.60;99.90
20654;DHT22;21083;50.898;4.902;2024-03-02T12:31:54;15.70;99.90
20654;DHT22;21083;50.898;4.902;2024-03-02T12:34:22;15.80;99.90
20654;DHT22;21083;50.898;4.902;2024-03-02T12:36:50;15.90;99.90
20654;DHT22;21083;50.898;4.902;2024-03-02T12:39:19;15.90;99.90
20654;DHT22;21083;50.898;4.902;2024-03-02T12:41:49;15.70;99.90
20654;DHT22;21083;50.898;4.902;2024-03-02T12:44:17;15.60;99.90
20654;DHT22;21083;50.898;4.902;2024-03-02T12:46:46;15.50;99.90
20654;DHT22;21083;50.898;4.902;2024-03-02T12:49:15;15.30;99.90
20654;DHT22;21083;50.898;4.902;2024-03-02T12:51:43;15.30;99.90
20654;DHT22;21083;50.898;4.902;2024-03-02T12:54:12;15.30;99.90
20654;DHT22;21083;50.898;4.902;2024-03-02T12:56:41;15.20;99.90
20654;DHT22;21083;50.898;4.902;2024-03-02T12:59:18;15.20;99.90
20654;DHT22;21083;50.898;4.902;2024-03-02T13:01:51;15.00;99.90
20654;DHT22;21083;50.898;4.902;2024-03-02T13:04:23;15.00;99.90
20654;DHT22;21083;50.898;4.902;2024-03-02T13:06:51;15.00;99.90
20654;DHT22;21083;50.898;4.902;2024-03-02T13:09:19;14.90;99.90
20654;DHT22;21083;50.898;4.902;2024-03-02T13:11:47;15.10;99.90
20654;DHT22;21083;50.898;4.902;2024-03-02T13:14:14;15.30;99.90
20654;DHT22;21083;50.898;4.902;2024-03-02T13:16:42;15.70;99.90
20654;DHT22;21083;50.898;4.902;2024-03-02T13:19:09;15.80;99.90
20654;DHT22;21083;50.898;4.902;2024-03-02T13:21:38;15.70;99.90
20654;DHT22;21083;50.898;4.902;2024-03-02T13:24:06;15.70;99.90
20654;DHT22;21083;50.898;4.902;2024-03-02T13:26:34;16.20;99.90
20654;DHT22;21083;50.898;4.902;2024-03-02T13:29:01;16.30;99.90
20654;DHT22;21083;50.898;4.902;2024-03-02T13:31:28;15.90;99.90
20654;DHT22;21083;50.898;4.902;2024-03-02T13:33:56;15.80;99.90
20654;DHT22;21083;50.898;4.902;2024-03-02T13:36:23;15.60;99.90
20654;DHT22;21083;50.898;4.902;2024-03-02T13:38:52;15.80;99.90
20654;DHT22;21083;50.898;4.902;2024-03-02T13:41:19;16.50;99.90
20654;DHT22;21083;50.898;4.902;2024-03-02T13:43:47;17.20;99.90
20654;DHT22;21083;50.898;4.902;2024-03-02T13:46:15;17.90;99.90
20654;DHT22;21083;50.898;4.902;2024-03-02T13:48:43;18.10;99.90
20654;DHT22;21083;50.898;4.902;2024-03-02T13:51:10;17.80;99.90
20654;DHT22;21083;50.898;4.902;2024-03-02T13:53:37;17.50;99.90
20654;DHT22;21083;50.898;4.902;2024-03-02T13:56:07;17.30;99.90
20654;DHT22;21083;50.898;4.902;2024-03-02T13:58:35;17.60;99.90
20654;DHT22;21083;50.898;4.902;2024-03-02T14:01:02;17.70;99.90
20654;DHT22;21083;50.898;4.902;2024-03-02T14:03:31;17.60;99.90
20654;DHT22;21083;50.898;4.902;2024-03-02T14:05:58;18.20;99.90
20654;DHT22;21083;50.898;4.902;2024-03-02T14:08:26;18.60;99.90
20654;DHT22;21083;50.898;4.902;2024-03-02T14:10:53;18.50;99.90
20654;DHT22;21083;50.898;4.902;2024-03-02T14:13:22;18.30;99.90
20654;DHT22;21083;50.898;4.902;2024-03-02T14:15:50;18.20;99.90
20654;DHT22;21083;50.898;4.902;2024-03-02T14:18:17;17.80;99.90
20654;DHT22;21083;50.898;4.902;2024-03-02T14:20:45;17.60;99.90
20654;DHT22;21083;50.898;4.902;2024-03-02T14:23:17;17.30;99.90
20654;DHT22;21083;50.898;4.902;2024-03-02T14:25:45;17.20;99.90
20654;DHT22;21083;50.898;4.902;2024-03-02T14:28:12;17.30;99.90
20654;DHT22;21083;50.898;4.902;2024-03-02T14:30:43;17.50;99.90
20654;DHT22;21083;50.898;4.902;2024-03-02T14:33:10;17.70;99.90
20654;DHT22;21083;50.898;4.902;2024-03-02T14:35:39;17.50;99.90
20654;DHT22;21083;50.898;4.902;2024-03-02T14:38:06;17.30;99.90
20654;DHT22;21083;50.898;4.902;2024-03-02T14:40:34;16.90;99.90
20654;DHT22;21083;50.898;4.902;2024-03-02T14:43:01;16.80;99.90
20654;DHT22;21083;50.898;4.902;2024-03-02T14:45:29;16.60;99.90
20654;DHT22;21083;50.898;4.902;2024-03-02T14:47:58;16.40;99.90
20654;DHT22;21083;50.898;4.902;2024-03-02T14:50:25;16.20;99.90
20654;DHT22;21083;50.898;4.902;2024-03-02T14:52:52;16.10;99.90
20654;DHT22;21083;50.898;4.902;2024-03-02T14:55:20;15.90;99.90
20654;DHT22;21083;50.898;4.902;2024-03-02T14:57:47;15.70;99.90
20654;DHT22;21083;50.898;4.902;2024-03-02T15:00:15;15.70;99.90
20654;DHT22;21083;50.898;4.902;2024-03-02T15:02:42;15.60;99.90
20654;DHT22;21083;50.898;4.902;2024-03-02T15:05:11;15.40;99.90
20654;DHT22;21083;50.898;4.902;2024-03-02T15:07:38;15.50;99.90
20654;DHT22;21083;50.898;4.902;2024-03-02T15:10:06;15.50;99.90
20654;DHT22;21083;50.898;4.902;2024-03-02T15:12:34;15.50;99.90
20654;DHT22;21083;50.898;4.902;2024-03-02T15:15:01;15.50;99.90
20654;DHT22;21083;50.898;4.902;2024-03-02T15:17:29;15.70;99.90
20654;DHT22;21083;50.898;4.902;2024-03-02T15:19:56;15.50;99.90
20654;DHT22;21083;50.898;4.902;2024-03-02T15:22:26;15.60;99.90
20654;DHT22;21083;50.898;4.902;2024-03-02T15:24:53;15.60;99.90
20654;DHT22;21083;50.898;4.902;2024-03-02T15:27:20;15.50;99.90
20654;DHT22;21083;50.898;4.902;2024-03-02T15:29:48;15.50;99.90
20654;DHT22;21083;50.898;4.902;2024-03-02T15:32:16;15.30;99.90
20654;DHT22;21083;50.898;4.902;2024-03-02T15:34:43;15.40;99.90
20654;DHT22;21083;50.898;4.902;2024-03-02T15:37:11;15.30;99.90
20654;DHT22;21083;50.898;4.902;2024-03-02T15:39:40;15.40;99.90
20654;DHT22;21083;50.898;4.902;2024-03-02T15:42:07;15.40;99.90
20654;DHT22;21083;50.898;4.902;2024-03-02T15:44:34;15.30;99.90
20654;DHT22;21083;50.898;4.902;2024-03-02T15:47:02;15.10;99.90
20654;DHT22;21083;50.898;4.902;2024-03-02T15:49:30;14.90;99.90
20654;DHT22;21083;50.898;4.902;2024-03-02T15:51:57;14.80;99.90